• Join FlightAware (Why Join?)
  • Login
  • US Flag 
02:31AM EST


 

Airport Tracker/Info


-or-


 

Live Flight TrackerFlight Track Log ✈ UPS218 ✈ 23-Feb-2014 ✈ KPHL - KSDF

Flight Track Log - Related Links

Times and Time Zones

All times are in EST time to prevent confusion due to time zone crossing. See the UPS218 flight status page for this flight to view local times or setup timezone preferences in your user account.

Time Position Orientation Groundspeed Altitude Reporting Facility
EST Latitude Longitude Course Direction KTS MPH feet Rate Location/Type
10:35PM 39.8622 -75.2685 251° West 143 165 1,600  Level FlightAware ADS-B
10:35PM 39.8584 -75.2827 251° West 136 157 1,700 938 Climbing FlightAware ADS-B (KWWD)
10:35PM 39.8543 -75.2962 248° West 146 168 2,100 1,135 Climbing FlightAware ADS-B (KWWD)
10:36PM 39.8491 -75.3121 247° West 155 178 2,400 1,500 Climbing FlightAware ADS-B
10:36PM 39.8434 -75.3301 248° West 199 229 3,100 2,400 Climbing FlightAware ADS-B
10:36PM 39.8386 -75.3458 248° West 212 244 4,000 2,595 Climbing FlightAware ADS-B
10:37PM 39.8314 -75.3821 256° West 234 269 4,700 2,667 Climbing FlightAware ADS-B (KWWD)
10:37PM 39.8319 -75.3967 272° West 240 276 5,200 2,526 Climbing FlightAware ADS-B (KWWD)
10:37PM 39.8329 -75.4059 279° West 230 265 5,500 2,571 Climbing FlightAware ADS-B
10:37PM 39.8337 -75.4118 280° West 241 277 5,800 3,750 Climbing FlightAware ADS-B
10:37PM 39.8371 -75.4374 280° West 238 274 7,000 3,405 Climbing FlightAware ADS-B
10:38PM 39.8402 -75.4658 278° West 240 276 7,900 3,081 Climbing FlightAware ADS-B
10:38PM 39.8431 -75.4928 278° West 242 278 8,900 3,000 Climbing FlightAware ADS-B
10:38PM 39.8450 -75.5127 277° West 242 278 9,400 2,857 Climbing FlightAware ADS-B (KWWD)
10:38PM 39.8461 -75.5271 276° West 241 277 9,900 2,600 Climbing FlightAware ADS-B (KWWD)
10:39PM 39.8476 -75.5570 274° West 251 289 10,700 1,800 Climbing FlightAware ADS-B (KWWD)
10:39PM 39.8509 -75.6234 274° West 302 348 11,700 2,229 Climbing FlightAware ADS-B (KWWD)
10:40PM 39.8540 -75.6796 274° West 318 366 13,300 3,429 Climbing FlightAware ADS-B (KWWD)
10:40PM 39.8573 -75.7377 274° West 324 373 15,300 3,524 Climbing FlightAware ADS-B
10:41PM 39.8604 -75.7957 274° West 330 380 17,000 3,455 Climbing FlightAware ADS-B
10:42PM 39.8646 -75.8753 274° West 340 391 19,100 3,321 Climbing FlightAware ADS-B (KWWD)
10:42PM 39.8667 -75.9161 274° West 344 396 20,100 2,947 Climbing FlightAware ADS-B (KWWD)
10:43PM 39.8705 -75.9882 274° West 348 400 21,900 3,250 Climbing FlightAware ADS-B
10:43PM 39.8713 -76.0038 274° West 348 400 22,700 3,143 Climbing FlightAware ADS-B
10:43PM 39.8730 -76.0376 274° West 350 403 23,000 2,455 Climbing FlightAware ADS-B (KWWD)
10:43PM 39.8743 -76.0629 274° West 351 404 23,600 2,615 Climbing FlightAware ADS-B (KWWD)
10:44PM 39.8771 -76.1203 274° West 357 411 24,700 2,500 Climbing FlightAware ADS-B (KWWD)
10:44PM 39.8806 -76.1907 274° West 360 414 26,100 2,455 Climbing FlightAware ADS-B (KWWD)
10:44PM 39.8818 -76.2144 274° West 362 417 26,500 2,182 Climbing FlightAware ADS-B (KWWD)
10:44PM 39.8827 -76.2321 274° West 366 421 26,900 2,038 Climbing FlightAware ADS-B
10:45PM 39.8871 -76.3208 274° West 373 429 28,300 2,466 Climbing FlightAware ADS-B
10:46PM 39.8904 -76.3903 274° West 362 417 29,900 3,391 Climbing FlightAware ADS-B
10:46PM 39.8925 -76.4320 274° West 355 409 30,900 2,694 Climbing FlightAware ADS-B (KWWD)
10:46PM 39.8956 -76.4973 274° West 351 404 32,100 2,160 Climbing FlightAware ADS-B
10:47PM 39.8972 -76.5327 273° West 350 403 32,700 2,077 Climbing FlightAware ADS-B
10:47PM 39.8972 -76.5327 273° West 347 399 33,900 1,114 Climbing FlightAware ADS-B
10:48PM 39.8972 -76.5327 273° West 350 403 34,000 545 Climbing FlightAware ADS-B
10:49PM 39.9084 -76.7799 273° West 351 404 34,800 833 Climbing FlightAware ADS-B
10:50PM 39.9110 -76.8367 273° West 354 407 35,500 766 Climbing FlightAware ADS-B
10:51PM 39.9185 -77.0145 273° West 361 415 36,000 357 Climbing FlightAware ADS-B
10:51PM 39.9218 -77.0919 273° West 363 418 36,000  Level FlightAware ADS-B (KWWD)
10:52PM 39.9258 -77.1779 274° West 364 419 36,000  Level FlightAware ADS-B (KWWD)
10:52PM 39.9304 -77.2409 275° West 366 421 36,000  Level FlightAware ADS-B
10:53PM 39.9304 -77.2409 275° West 367 422 36,000  Level FlightAware ADS-B
10:54PM 39.9412 -77.4057 275° West 368 423 36,000  Level FlightAware ADS-B
10:54PM 39.9461 -77.4845 275° West 369 425 36,000  Level FlightAware ADS-B (KWWD)
10:55PM 39.9502 -77.5519 275° West 370 426 36,000  Level FlightAware ADS-B (KWWD)
10:56PM 39.9412 -77.4057 95° East 369 425 36,000  Level FlightAware ADS-B
10:57PM 39.9715 -77.9083 275° West 368 423 36,000  Level FlightAware ADS-B (KWWD)
10:58PM 39.9760 -77.9851 274° West 367 422 36,000  Level FlightAware ADS-B (KWWD)
10:58PM 39.9807 -78.0697 274° West 367 422 36,000  Level FlightAware ADS-B (KWWD)
11:03PM 39.9195 -78.6655 263° West 363 418 36,000  Level FlightAware ADS-B (KWWD)
11:04PM 39.9117 -78.7283 263° West 364 419 36,000  Level Cleveland Center
11:05PM 39.8958 -78.8581 261° West 364 419 36,000  Level Cleveland Center
11:08PM 39.9289 -78.5871 261° West 372 428 36,000  Level FlightAware ADS-B (KWWD)
11:12PM 39.7655 -79.8743 261° West 365 420 36,000  Level FlightAware ADS-B (KWWD)
11:13PM 39.7592 -79.9217 261° West 367 422 36,000  Level Cleveland Center
11:14PM 39.7417 -80.0514 260° West 365 420 36,000  Level Cleveland Center
11:15PM 39.7242 -80.1806 260° West 364 419 36,000  Level Cleveland Center
11:16PM 39.7067 -80.3100 260° West 364 419 36,000  Level Cleveland Center
11:17PM 39.6889 -80.4392 260° West 363 418 36,000  Level Cleveland Center
11:18PM 39.6711 -80.5681 260° West 363 418 36,000  Level Cleveland Center
11:19PM 39.6528 -80.6975 260° West 364 419 36,000  Level Cleveland Center
11:20PM 39.6347 -80.8267 260° West 364 419 36,000  Level Cleveland Center
11:25PM 39.5325 -81.5329 260° West 364 419 36,000  Level FlightAware ADS-B
11:26PM 39.5125 -81.6669 259° West 364 419 36,000  Level FlightAware ADS-B
11:27PM 39.5018 -81.7377 259° West 363 418 36,000  Level FlightAware ADS-B
11:28PM 39.4768 -81.9036 259° West 364 419 36,000  Level FlightAware ADS-B
11:29PM 39.4640 -81.9883 259° West 364 419 36,000  Level FlightAware ADS-B
11:30PM 39.4503 -82.0775 259° West 364 419 36,000  Level FlightAware ADS-B
11:30PM 39.4405 -82.1412 259° West 364 419 36,000  Level FlightAware ADS-B
11:31PM 39.4265 -82.2328 259° West 364 419 36,000  Level FlightAware ADS-B
11:31PM 39.4136 -82.3148 259° West 363 418 36,000  Level FlightAware ADS-B
11:32PM 39.4003 -82.4011 259° West 363 418 36,000  Level FlightAware ADS-B
11:33PM 39.3899 -82.4672 259° West 363 418 36,000  Level FlightAware ADS-B
11:33PM 39.3754 -82.5601 259° West 363 418 36,000  Level FlightAware ADS-B
11:34PM 39.3650 -82.6253 258° West 362 417 36,000  Level FlightAware ADS-B
11:35PM 39.3487 -82.7283 258° West 361 415 36,000  Level FlightAware ADS-B
11:35PM 39.3377 -82.7969 258° West 362 417 36,000  Level FlightAware ADS-B
11:36PM 39.3191 -82.9128 258° West 362 417 36,000  Level FlightAware ADS-B
11:37PM 39.3056 -82.9966 258° West 364 419 36,000  Level FlightAware ADS-B
11:37PM 39.2934 -83.0735 258° West 364 419 36,000  Level FlightAware ADS-B
11:38PM 39.2808 -83.1375 256° West 367 422 36,000  Level FlightAware ADS-B
11:38PM 39.2658 -83.1962 252° West 368 423 36,000  Level FlightAware ADS-B
11:39PM 39.2440 -83.2740 250° West 371 427 36,000  Level FlightAware ADS-B
11:39PM 39.2233 -83.3385 248° West 372 428 36,000  Level FlightAware ADS-B
11:40PM 39.1979 -83.3987 241° Southwest 373 429 36,000  Level FlightAware ADS-B
11:41PM 39.1683 -83.4564 237° Southwest 373 429 36,000  Level FlightAware ADS-B
11:41PM 39.1358 -83.5196 236° Southwest 372 428 36,000  Level FlightAware ADS-B
11:42PM 39.1029 -83.5820 236° Southwest 369 425 36,000  Level FlightAware ADS-B
11:42PM 39.0618 -83.6597 236° Southwest 368 423 36,000  Level FlightAware ADS-B
11:43PM 39.0281 -83.7236 236° Southwest 368 423 36,000  Level FlightAware ADS-B
11:44PM 38.9883 -83.7989 236° Southwest 367 422 36,000  Level FlightAware ADS-B
11:44PM 38.9559 -83.8599 236° Southwest 368 423 36,000  Level FlightAware ADS-B
11:45PM 38.9111 -83.9439 236° Southwest 365 420 36,000  Level FlightAware ADS-B
11:45PM 38.8827 -83.9975 236° Southwest 364 419 36,000  Level FlightAware ADS-B
11:46PM 38.8560 -84.0475 236° Southwest 364 419 36,000 -100 Level FlightAware ADS-B
11:46PM 38.8296 -84.0969 236° Southwest 363 418 35,900 -1,300 Descending FlightAware ADS-B
11:47PM 38.7968 -84.1584 236° Southwest 363 418 34,700 -2,400 Descending FlightAware ADS-B
11:47PM 38.7699 -84.2083 235° Southwest 355 409 33,500 -3,400 Descending FlightAware ADS-B
11:48PM 38.7405 -84.2628 235° Southwest 371 427 31,300 -4,300 Descending FlightAware ADS-B
11:48PM 38.7113 -84.3176 236° Southwest 383 441 29,200 -4,300 Descending FlightAware ADS-B
11:49PM 38.6798 -84.3764 236° Southwest 393 452 27,000 -2,361 Descending FlightAware ADS-B
11:50PM 38.6778 -84.3801 236° Southwest 401 461 26,800 -3,290 Descending FlightAware ADS-B (KCVG)
11:50PM 38.6778 -84.3801 236° Southwest 395 455 23,600 -3,947 Descending FlightAware ADS-B (KCVG)
11:51PM 38.5697 -84.5790 235° Southwest 381 438 21,800 -2,327 Descending FlightAware ADS-B (KCVG)
11:52PM 38.5168 -84.6765 235° Southwest 369 425 19,800 -2,308 Descending FlightAware ADS-B (KCVG)
11:52PM 38.4807 -84.7427 235° Southwest 364 419 18,300 -2,167 Descending FlightAware ADS-B (KCVG)
11:53PM 38.4489 -84.8011 235° Southwest 356 410 17,200 -2,108 Descending FlightAware ADS-B (KCVG)
11:54PM 38.4234 -84.8478 235° Southwest 352 405 15,700 -2,051 Descending FlightAware ADS-B (KCVG)
11:54PM 38.3797 -84.9275 235° Southwest 355 409 14,500 -1,719 Descending Indianapolis Center
12:00AM 38.1235 -85.3909 235° Southwest 228 262 4,500 -1,681 Descending FlightAware ADS-B (EKHG)
12:01AM 38.0888 -85.4546 235° Southwest 218 251 2,900 -977 Descending FlightAware ADS-B (EKHG)
12:02AM 38.0772 -85.5330 259° West 176 203 2,400 -286 Descending FlightAware ADS-B (EKHG)
12:03AM 38.0729 -85.5947 265° West 176 203 2,300 -50 Descending FlightAware ADS-B (EKHG)
12:04AM 38.0687 -85.6550 265° West 160 184 2,300 61 Level FlightAware ADS-B (EKHG)
12:05AM 38.0667 -85.6833 345° North 159 183 2,400 -98 Climbing Louisville TRACON
12:05AM 38.0736 -85.7100 276° West 164 189 2,200 -689 Descending FlightAware ADS-B (EKHG)
12:06AM 38.0887 -85.7189 335° Northwest 135 155 1,700 -703 Descending FlightAware ADS-B (EKHG)
12:07AM 38.1500 -85.7333 345° North 131 151 700 -674 Descending Louisville TRACON
12:09AM 38.1667 -85.7333 345° North  Level FlightAware Approximate
12:10AM 38.1667 -85.7333 345° North  Level FlightAware Approximate